Kinuura Maru — JD2329 — position and weather

sailwx.info

Track history (hours):
 
Tides and Currents Weather Stations Pressure Air Temp Water Temp Dewpoint Dewpoint Depression Visibility Wind Speed Wind Dir Waves Ship Positions

Kinuura Maru

Last reported at 2018-Jun-16 09:21 UTC. Time now 2018-Jun-22 03:44 UTC.
Position N 33°38' E 135°10'.

Length 165 m; draft 6.5 m.

Type: Cargo ship. MMSI: 431101175.

Date/timePositionNaut miles runAvg speedWind from/ knotsBaromVisibWave heightAir tempDewpointWater temp
2018-Jun-16 09:21N 33°38' E 135°10'513.3
2018-Jun-16 09:01N 33°42' E 135°07'714.0
2018-Jun-16 08:30N 33°47' E 135°02'714.6
2018-Jun-16 08:01N 33°54' E 134°57'815.0
2018-Jun-16 07:30N 34°01' E 134°57'714.2
2018-Jun-16 07:00N 34°08' E 134°58'917.5
2018-Jun-16 06:30N 34°17' E 134°58'713.5
2018-Jun-16 06:00N 34°24' E 134°60'713.0
2018-Jun-16 05:30N 34°30' E 135°02'713.4
2018-Jun-16 05:00N 34°36' E 135°02'918.5
2018-Jun-16 04:31N 34°34' E 134°51'917.5
2018-Jun-16 04:01N 34°30' E 134°41'917.3
2018-Jun-16 03:31N 34°27' E 134°32'917.9
2018-Jun-16 03:00N 34°24' E 134°21'19 0.4
2018-Jun-14 05:53N 34°25' E 133°59'1015.2
2018-Jun-14 05:12N 34°25' E 134°11'318.1
2018-Jun-14 05:00N 34°24' E 134°15'1019.8
2018-Jun-14 04:30N 34°27' E 134°27'1019.9
2018-Jun-14 04:00N 34°30' E 134°38'1019.9
2018-Jun-14 03:30N 34°34' E 134°49'918.5
2018-Jun-14 03:00N 34°37' E 134°60'918.5
2018-Jun-14 02:30N 34°36' E 135°11'816.9
2018-Jun-14 02:00N 34°39' E 135°21'3 5.4
2018-Jun-14 01:30N 34°41' E 135°23'0 0.0
2018-Jun-14 00:54N 34°41' E 135°23'0 0.0
2018-Jun-14 00:30N 34°41' E 135°23'0 0.0
2018-Jun-14 00:00N 34°41' E 135°23'0 0.0
2018-Jun-13 23:30N 34°41' E 135°23'0 0.0
2018-Jun-13 23:00N 34°41' E 135°23'0 0.2
2018-Jun-13 22:29N 34°41' E 135°23'4 9.2
2018-Jun-13 22:00N 34°38' E 135°19'816.7
2018-Jun-13 21:30N 34°31' E 135°13'917.1
2018-Jun-13 21:00N 34°25' E 135°07'917.7
2018-Jun-13 20:31N 34°18' E 134°60'1019.0
2018-Jun-13 20:00N 34°09' E 134°58'1019.9
2018-Jun-13 19:30N 33°59' E 134°59'918.1
2018-Jun-13 19:00N 33°50' E 135°01'1019.0
2018-Jun-13 18:30N 33°43' E 135°09'235 7.2
2018-Jun-12 09:44N 35°03' E 139°37'415.8
2018-Jun-12 09:30N 35°06' E 139°40'715.0
2018-Jun-12 09:00N 35°12' E 139°46'612.4
2018-Jun-12 08:30N 35°18' E 139°44'713.4
2018-Jun-12 08:00N 35°23' E 139°40'1 1.7
2018-Jun-12 07:30N 35°23' E 139°39'0 0.0
2018-Jun-12 07:00N 35°23' E 139°39'0 0.0
2018-Jun-12 06:30N 35°23' E 139°39'0 0.0
2018-Jun-12 06:00N 35°23' E 139°39'0 0.0
2018-Jun-12 05:27N 35°23' E 139°39'0 0.0
2018-Jun-12 05:00N 35°23' E 139°39'0 0.0
2018-Jun-12 04:30N 35°23' E 139°39'3 5.5
2018-Jun-12 04:01N 35°24' E 139°42'1020.4
2018-Jun-12 03:30N 35°30' E 139°52'917.5
2018-Jun-12 03:00N 35°34' E 140°02'3 0.4
2018-Jun-11 20:10N 35°36' E 140°05'2 9.9
2018-Jun-11 20:00N 35°35' E 140°03'2 1.2
2018-Jun-11 18:30N 35°35' E 140°01'0 0.0
2018-Jun-11 17:57N 35°35' E 140°01'0 1.1
2018-Jun-11 17:30N 35°34' E 140°01'714.8
2018-Jun-11 17:00N 35°30' E 139°53'816.0
2018-Jun-11 16:30N 35°24' E 139°46'612.6
2018-Jun-11 16:00N 35°18' E 139°44'612.2
2018-Jun-11 15:30N 35°12' E 139°47'917.8
2018-Jun-11 15:00N 35°04' E 139°43'239 7.8
2018-Jun-10 08:12N 33°41' E 135°11'420.7
2018-Jun-10 08:00N 33°44' E 135°08'1020.5
2018-Jun-10 07:30N 33°52' E 135°00'1019.6
2018-Jun-10 07:00N 34°01' E 134°59'1020.8
2018-Jun-10 06:31N 34°12' E 134°59'1020.6
2018-Jun-10 06:00N 34°22' E 134°59'1020.6
2018-Jun-10 05:30N 34°32' E 135°03'714.1
2018-Jun-10 05:00N 34°36' E 134°56'1021.2
2018-Jun-10 04:30N 34°31' E 134°45'1121.1
2018-Jun-10 04:00N 34°27' E 134°33'1020.9
2018-Jun-10 03:30N 34°24' E 134°21'5 0.1
2018-Jun-08 04:30N 34°24' E 134°15'1020.7
2018-Jun-08 04:01N 34°27' E 134°26'1020.8
2018-Jun-08 03:31N 34°31' E 134°38'1020.3
2018-Jun-08 03:01N 34°34' E 134°50'1018.8
2018-Jun-08 02:29N 34°37' E 135°01'918.4
2018-Jun-08 02:01N 34°36' E 135°12'816.6
2018-Jun-08 01:31N 34°40' E 135°21'2 4.5
2018-Jun-08 01:00N 34°41' E 135°23'0 0.0
2018-Jun-08 00:28N 34°41' E 135°23'0 0.0
2018-Jun-07 23:58N 34°41' E 135°23'0 0.0
2018-Jun-07 23:25N 34°41' E 135°23'0 0.0
2018-Jun-07 22:55N 34°41' E 135°23'0 0.3
2018-Jun-07 22:30N 34°41' E 135°23'611.7
2018-Jun-07 22:01N 34°37' E 135°18'918.1
2018-Jun-07 21:30N 34°30' E 135°11'918.0
2018-Jun-07 21:00N 34°23' E 135°04'817.0
2018-Jun-07 20:30N 34°16' E 134°59'815.1
2018-Jun-07 20:00N 34°08' E 134°59'918.2
2018-Jun-07 19:30N 33°59' E 134°60'1019.1
2018-Jun-07 19:00N 33°50' E 135°01'239 7.9
2018-Jun-06 12:47N 35°03' E 139°37'620.5
2018-Jun-06 12:29N 35°06' E 139°42'815.7
2018-Jun-06 12:00N 35°13' E 139°46'612.1
2018-Jun-06 11:31N 35°19' E 139°43'510.9
2018-Jun-06 11:01N 35°23' E 139°40'1 1.4
2018-Jun-06 10:30N 35°23' E 139°39'0 0.0
2018-Jun-06 10:00N 35°23' E 139°39'0 0.0
2018-Jun-06 09:30N 35°23' E 139°39'  
Track history (hours):
 
Tides and Currents Weather Stations Pressure Air Temp Water Temp Dewpoint Dewpoint Depression Visibility Wind Speed Wind Dir Waves Ship Positions

Kinuura Maru

Last reported at 2018-Jun-16 09:21 UTC. Time now 2018-Jun-22 03:44 UTC.
Position N 33°38' E 135°10'.

Length 165 m; draft 6.5 m.

Type: Cargo ship. MMSI: 431101175.

Date/timePositionNaut miles runAvg speedWind from/ knotsBaromVisibWave heightAir tempDewpointWater temp
2018-Jun-16 09:21N 33°38' E 135°10'513.3
2018-Jun-16 09:01N 33°42' E 135°07'714.0
2018-Jun-16 08:30N 33°47' E 135°02'714.6
2018-Jun-16 08:01N 33°54' E 134°57'815.0
2018-Jun-16 07:30N 34°01' E 134°57'714.2
2018-Jun-16 07:00N 34°08' E 134°58'917.5
2018-Jun-16 06:30N 34°17' E 134°58'713.5
2018-Jun-16 06:00N 34°24' E 134°60'713.0
2018-Jun-16 05:30N 34°30' E 135°02'713.4
2018-Jun-16 05:00N 34°36' E 135°02'918.5
2018-Jun-16 04:31N 34°34' E 134°51'917.5
2018-Jun-16 04:01N 34°30' E 134°41'917.3
2018-Jun-16 03:31N 34°27' E 134°32'917.9
2018-Jun-16 03:00N 34°24' E 134°21'19 0.4
2018-Jun-14 05:53N 34°25' E 133°59'1015.2
2018-Jun-14 05:12N 34°25' E 134°11'318.1
2018-Jun-14 05:00N 34°24' E 134°15'1019.8
2018-Jun-14 04:30N 34°27' E 134°27'1019.9
2018-Jun-14 04:00N 34°30' E 134°38'1019.9
2018-Jun-14 03:30N 34°34' E 134°49'918.5
2018-Jun-14 03:00N 34°37' E 134°60'918.5
2018-Jun-14 02:30N 34°36' E 135°11'816.9
2018-Jun-14 02:00N 34°39' E 135°21'3 5.4
2018-Jun-14 01:30N 34°41' E 135°23'0 0.0
2018-Jun-14 00:54N 34°41' E 135°23'0 0.0
2018-Jun-14 00:30N 34°41' E 135°23'0 0.0
2018-Jun-14 00:00N 34°41' E 135°23'0 0.0
2018-Jun-13 23:30N 34°41' E 135°23'0 0.0
2018-Jun-13 23:00N 34°41' E 135°23'0 0.2
2018-Jun-13 22:29N 34°41' E 135°23'4 9.2
2018-Jun-13 22:00N 34°38' E 135°19'816.7
2018-Jun-13 21:30N 34°31' E 135°13'917.1
2018-Jun-13 21:00N 34°25' E 135°07'917.7
2018-Jun-13 20:31N 34°18' E 134°60'1019.0
2018-Jun-13 20:00N 34°09' E 134°58'1019.9
2018-Jun-13 19:30N 33°59' E 134°59'918.1
2018-Jun-13 19:00N 33°50' E 135°01'1019.0
2018-Jun-13 18:30N 33°43' E 135°09'235 7.2
2018-Jun-12 09:44N 35°03' E 139°37'415.8
2018-Jun-12 09:30N 35°06' E 139°40'715.0
2018-Jun-12 09:00N 35°12' E 139°46'612.4
2018-Jun-12 08:30N 35°18' E 139°44'713.4
2018-Jun-12 08:00N 35°23' E 139°40'1 1.7
2018-Jun-12 07:30N 35°23' E 139°39'0 0.0
2018-Jun-12 07:00N 35°23' E 139°39'0 0.0
2018-Jun-12 06:30N 35°23' E 139°39'0 0.0
2018-Jun-12 06:00N 35°23' E 139°39'0 0.0
2018-Jun-12 05:27N 35°23' E 139°39'0 0.0
2018-Jun-12 05:00N 35°23' E 139°39'0 0.0
2018-Jun-12 04:30N 35°23' E 139°39'3 5.5
2018-Jun-12 04:01N 35°24' E 139°42'1020.4
2018-Jun-12 03:30N 35°30' E 139°52'917.5
2018-Jun-12 03:00N 35°34' E 140°02'3 0.4
2018-Jun-11 20:10N 35°36' E 140°05'2 9.9
2018-Jun-11 20:00N 35°35' E 140°03'2 1.2
2018-Jun-11 18:30N 35°35' E 140°01'0 0.0
2018-Jun-11 17:57N 35°35' E 140°01'0 1.1
2018-Jun-11 17:30N 35°34' E 140°01'714.8
2018-Jun-11 17:00N 35°30' E 139°53'816.0
2018-Jun-11 16:30N 35°24' E 139°46'612.6
2018-Jun-11 16:00N 35°18' E 139°44'612.2
2018-Jun-11 15:30N 35°12' E 139°47'917.8
2018-Jun-11 15:00N 35°04' E 139°43'239 7.8
2018-Jun-10 08:12N 33°41' E 135°11'420.7
2018-Jun-10 08:00N 33°44' E 135°08'1020.5
2018-Jun-10 07:30N 33°52' E 135°00'1019.6
2018-Jun-10 07:00N 34°01' E 134°59'1020.8
2018-Jun-10 06:31N 34°12' E 134°59'1020.6
2018-Jun-10 06:00N 34°22' E 134°59'1020.6
2018-Jun-10 05:30N 34°32' E 135°03'714.1
2018-Jun-10 05:00N 34°36' E 134°56'1021.2
2018-Jun-10 04:30N 34°31' E 134°45'1121.1
2018-Jun-10 04:00N 34°27' E 134°33'1020.9
2018-Jun-10 03:30N 34°24' E 134°21'5 0.1
2018-Jun-08 04:30N 34°24' E 134°15'1020.7
2018-Jun-08 04:01N 34°27' E 134°26'1020.8
2018-Jun-08 03:31N 34°31' E 134°38'1020.3
2018-Jun-08 03:01N 34°34' E 134°50'1018.8
2018-Jun-08 02:29N 34°37' E 135°01'918.4
2018-Jun-08 02:01N 34°36' E 135°12'816.6
2018-Jun-08 01:31N 34°40' E 135°21'2 4.5
2018-Jun-08 01:00N 34°41' E 135°23'0 0.0
2018-Jun-08 00:28N 34°41' E 135°23'0 0.0
2018-Jun-07 23:58N 34°41' E 135°23'0 0.0
2018-Jun-07 23:25N 34°41' E 135°23'0 0.0
2018-Jun-07 22:55N 34°41' E 135°23'0 0.3
2018-Jun-07 22:30N 34°41' E 135°23'611.7
2018-Jun-07 22:01N 34°37' E 135°18'918.1
2018-Jun-07 21:30N 34°30' E 135°11'918.0
2018-Jun-07 21:00N 34°23' E 135°04'817.0
2018-Jun-07 20:30N 34°16' E 134°59'815.1
2018-Jun-07 20:00N 34°08' E 134°59'918.2
2018-Jun-07 19:30N 33°59' E 134°60'1019.1
2018-Jun-07 19:00N 33°50' E 135°01'239 7.9
2018-Jun-06 12:47N 35°03' E 139°37'620.5
2018-Jun-06 12:29N 35°06' E 139°42'815.7
2018-Jun-06 12:00N 35°13' E 139°46'612.1
2018-Jun-06 11:31N 35°19' E 139°43'510.9
2018-Jun-06 11:01N 35°23' E 139°40'1 1.4
2018-Jun-06 10:30N 35°23' E 139°39'0 0.0
2018-Jun-06 10:00N 35°23' E 139°39'0 0.0
2018-Jun-06 09:30N 35°23' E 139°39'  

Dump ship's entire track history